Overclock.net › Forums › Graphics Cards › NVIDIA › odd GPU load while idle
New Posts  All Forums:Forum Nav:

odd GPU load while idle

post #1 of 3
Thread Starter 
Hi Board Members,

i have a strange issue that started to appear today. My GPU Load and Core Clock is going all the Way up while idling in windows, its really only the Desktop, no browser no other graphics except windows aero.
I started GPU-Z to monitor the behavior and idle GPU clock should be around 324 Mhz and when i leave the mouse alone and wait 1-3 minutes GPU Core Clock goes up to 1136 (i have a GTX 670 Jetstream from Palit) and load to 100 % VDDC accordingly.
As soon as i move the mouse everything goes back to normal.

I was running the WHQL 320.18 driver, i updated them 2 days ago but i thought it would be them causing it so i downgraded back to the previous WHQL 314.

i have captured the sensor log for 2 minutes, doing nothing except waiting the Clock to go up and then move a mouse after a minute

Warning: Spoiler! (Click to show)

Date , GPU Core Clock [MHz] , GPU Memory Clock [MHz] , GPU Temperature [°C] , Fan Speed (%) [%] , Fan Speed (RPM) [RPM] , Memory Used [MB] , GPU Load [%] , Memory Controller Load [%] , Video Engine Load [%] , Power Consumption [% TDP] , VDDC [V] ,

2013-05-28 20:19:29 , 324.0 , 162.0 , 42.0 , 31 , 1020 , 233 , 1 , 3 , 0 , 12.8 , 0.9870 ,

2013-05-28 20:19:30 , 324.0 , 162.0 , 42.0 , 31 , 1020 , 233 , 1 , 3 , 0 , 12.8 , 0.9870 ,

2013-05-28 20:19:31 , 324.0 , 162.0 , 42.0 , 31 , 1050 , 233 , 1 , 3 , 0 , 12.8 , 0.9870 ,

2013-05-28 20:19:32 , 324.0 , 162.0 , 42.0 , 31 , 1020 , 233 , 1 , 3 , 0 , 10.5 , 0.9870 ,

2013-05-28 20:19:33 , 324.0 , 162.0 , 42.0 , 31 , 1020 , 233 , 1 , 3 , 0 , 10.5 , 0.9870 ,

2013-05-28 20:19:34 , 324.0 , 162.0 , 42.0 , 31 , 1020 , 233 , 1 , 3 , 0 , 10.5 , 0.9870 ,

2013-05-28 20:19:35 , 324.0 , 162.0 , 42.0 , 31 , 1050 , 233 , 1 , 3 , 0 , 10.5 , 0.9870 ,

2013-05-28 20:19:36 , 324.0 , 162.0 , 42.0 , 31 , 1020 , 233 , 0 , 3 , 0 , 10.5 , 0.9870 ,

2013-05-28 20:19:37 , 324.0 , 162.0 , 42.0 , 31 , 1020 , 233 , 1 , 3 , 0 , 10.5 , 0.9870 ,

2013-05-28 20:19:38 , 324.0 , 162.0 , 42.0 , 31 , 1020 , 233 , 0 , 3 , 0 , 10.4 , 0.9870 ,

2013-05-28 20:19:39 , 324.0 , 162.0 , 42.0 , 31 , 1020 , 233 , 1 , 3 , 0 , 10.4 , 0.9870 ,

2013-05-28 20:19:40 , 324.0 , 162.0 , 42.0 , 31 , 1050 , 233 , 1 , 3 , 0 , 10.4 , 0.9870 ,

2013-05-28 20:19:41 , 324.0 , 162.0 , 42.0 , 31 , 1020 , 233 , 1 , 3 , 0 , 10.4 , 0.9870 ,

2013-05-28 20:19:42 , 324.0 , 162.0 , 42.0 , 31 , 1020 , 233 , 2 , 3 , 0 , 10.4 , 0.9870 ,

2013-05-28 20:19:43 , 324.0 , 162.0 , 41.0 , 31 , 1020 , 233 , 1 , 3 , 0 , 10.4 , 0.9870 ,

2013-05-28 20:19:44 , 324.0 , 162.0 , 42.0 , 31 , 1050 , 233 , 1 , 3 , 0 , 10.4 , 0.9870 ,

2013-05-28 20:19:45 , 324.0 , 162.0 , 42.0 , 31 , 1020 , 233 , 1 , 3 , 0 , 10.4 , 0.9870 ,

2013-05-28 20:19:46 , 324.0 , 162.0 , 41.0 , 31 , 1020 , 233 , 1 , 3 , 0 , 10.4 , 0.9870 ,

2013-05-28 20:19:47 , 324.0 , 162.0 , 41.0 , 31 , 1020 , 233 , 1 , 3 , 0 , 10.4 , 0.9870 ,

2013-05-28 20:19:48 , 324.0 , 162.0 , 41.0 , 31 , 1020 , 233 , 1 , 3 , 0 , 10.4 , 0.9870 ,

2013-05-28 20:19:49 , 324.0 , 162.0 , 41.0 , 31 , 1050 , 233 , 0 , 3 , 0 , 10.5 , 0.9870 ,

2013-05-28 20:19:50 , 324.0 , 162.0 , 41.0 , 31 , 1020 , 233 , 1 , 3 , 0 , 10.5 , 0.9870 ,

2013-05-28 20:19:51 , 324.0 , 162.0 , 41.0 , 31 , 1020 , 233 , 0 , 3 , 0 , 10.5 , 0.9870 ,

2013-05-28 20:19:52 , 324.0 , 162.0 , 41.0 , 31 , 1020 , 233 , 1 , 3 , 0 , 10.5 , 0.9870 ,

2013-05-28 20:19:53 , 324.0 , 162.0 , 41.0 , 31 , 1020 , 233 , 0 , 3 , 0 , 10.5 , 0.9870 ,

2013-05-28 20:19:54 , 324.0 , 162.0 , 41.0 , 31 , 1050 , 233 , 1 , 3 , 0 , 10.5 , 0.9870 ,

2013-05-28 20:19:55 , 324.0 , 162.0 , 41.0 , 31 , 1020 , 233 , 1 , 3 , 0 , 10.4 , 0.9870 ,

2013-05-28 20:19:56 , 324.0 , 162.0 , 41.0 , 31 , 1020 , 233 , 1 , 3 , 0 , 10.4 , 0.9870 ,

2013-05-28 20:19:57 , 324.0 , 162.0 , 41.0 , 31 , 1020 , 233 , 1 , 3 , 0 , 10.4 , 0.9870 ,

2013-05-28 20:19:58 , 324.0 , 162.0 , 41.0 , 31 , 1020 , 233 , 1 , 3 , 0 , 10.4 , 0.9870 ,

2013-05-28 20:19:59 , 324.0 , 162.0 , 41.0 , 31 , 1020 , 233 , 0 , 3 , 0 , 10.4 , 0.9870 ,

2013-05-28 20:20:00 , 324.0 , 162.0 , 41.0 , 31 , 1020 , 233 , 2 , 3 , 0 , 10.4 , 0.9870 ,

2013-05-28 20:20:01 , 324.0 , 162.0 , 41.0 , 31 , 1020 , 233 , 1 , 3 , 0 , 10.5 , 0.9870 ,

2013-05-28 20:20:02 , 324.0 , 162.0 , 41.0 , 31 , 1050 , 233 , 1 , 3 , 0 , 10.5 , 0.9870 ,

2013-05-28 20:20:03 , 324.0 , 162.0 , 41.0 , 31 , 1020 , 233 , 1 , 3 , 0 , 10.5 , 0.9870 ,

2013-05-28 20:20:04 , 324.0 , 162.0 , 41.0 , 31 , 1020 , 233 , 1 , 3 , 0 , 10.5 , 0.9870 ,

2013-05-28 20:20:05 , 324.0 , 162.0 , 41.0 , 31 , 1020 , 233 , 1 , 3 , 0 , 10.5 , 0.9870 ,

2013-05-28 20:20:06 , 324.0 , 162.0 , 41.0 , 31 , 1020 , 233 , 1 , 3 , 0 , 10.5 , 0.9870 ,

2013-05-28 20:20:07 , 324.0 , 162.0 , 41.0 , 31 , 1020 , 233 , 1 , 3 , 0 , 10.4 , 0.9870 ,

2013-05-28 20:20:08 , 324.0 , 162.0 , 41.0 , 31 , 1020 , 233 , 1 , 3 , 0 , 10.4 , 0.9870 ,

2013-05-28 20:20:09 , 324.0 , 162.0 , 41.0 , 31 , 1020 , 233 , 1 , 3 , 0 , 10.4 , 0.9870 ,

2013-05-28 20:20:10 , 324.0 , 162.0 , 41.0 , 31 , 1020 , 233 , 2 , 3 , 0 , 10.4 , 0.9870 ,

2013-05-28 20:20:11 , 324.0 , 162.0 , 41.0 , 31 , 1020 , 233 , 1 , 3 , 0 , 10.4 , 0.9870 ,

2013-05-28 20:20:12 , 324.0 , 162.0 , 41.0 , 31 , 1020 , 233 , 1 , 3 , 0 , 10.4 , 0.9870 ,

2013-05-28 20:20:13 , 324.0 , 162.0 , 41.0 , 31 , 1020 , 233 , 1 , 3 , 0 , 10.3 , 0.9870 ,

2013-05-28 20:20:15 , 324.0 , 162.0 , 41.0 , 31 , 1020 , 233 , 0 , 3 , 0 , 10.3 , 0.9870 ,

2013-05-28 20:20:16 , 324.0 , 162.0 , 41.0 , 31 , 1020 , 233 , 1 , 3 , 0 , 10.3 , 0.9870 ,

2013-05-28 20:20:17 , 324.0 , 162.0 , 41.0 , 31 , 1020 , 233 , 1 , 3 , 0 , 10.3 , 0.9870 ,

2013-05-28 20:20:18 , 324.0 , 162.0 , 41.0 , 31 , 1020 , 233 , 1 , 3 , 0 , 10.3 , 0.9870 ,

2013-05-28 20:20:19 , 324.0 , 162.0 , 41.0 , 31 , 1020 , 233 , 2 , 3 , 0 , 10.3 , 0.9870 ,

2013-05-28 20:20:20 , 324.0 , 162.0 , 41.0 , 31 , 1020 , 233 , 0 , 3 , 0 , 10.4 , 0.9870 ,

2013-05-28 20:20:21 , 324.0 , 162.0 , 41.0 , 31 , 1020 , 233 , 1 , 3 , 0 , 10.4 , 0.9870 ,

2013-05-28 20:20:22 , 324.0 , 162.0 , 41.0 , 31 , 1050 , 233 , 1 , 3 , 0 , 10.4 , 0.9870 ,

2013-05-28 20:20:23 , 324.0 , 162.0 , 41.0 , 31 , 1020 , 233 , 0 , 3 , 0 , 10.4 , 0.9870 ,

2013-05-28 20:20:24 , 324.0 , 162.0 , 41.0 , 31 , 1020 , 233 , 1 , 3 , 0 , 10.4 , 0.9870 ,

2013-05-28 20:20:25 , 324.0 , 162.0 , 41.0 , 31 , 1020 , 233 , 0 , 3 , 0 , 10.4 , 0.9870 ,

2013-05-28 20:20:26 , 324.0 , 162.0 , 41.0 , 31 , 1020 , 233 , 1 , 3 , 0 , 10.4 , 0.9870 ,

2013-05-28 20:20:27 , 324.0 , 162.0 , 41.0 , 31 , 1020 , 233 , 2 , 3 , 0 , 10.4 , 0.9870 ,

2013-05-28 20:20:28 , 324.0 , 162.0 , 41.0 , 30 , 1020 , 233 , 1 , 3 , 0 , 10.4 , 0.9870 ,

2013-05-28 20:20:29 , 324.0 , 162.0 , 41.0 , 31 , 1020 , 233 , 1 , 3 , 0 , 10.4 , 0.9870 ,

2013-05-28 20:20:30 , 324.0 , 162.0 , 41.0 , 31 , 1020 , 233 , 1 , 3 , 0 , 10.4 , 0.9870 ,

2013-05-28 20:20:31 , 324.0 , 162.0 , 41.0 , 31 , 1020 , 233 , 1 , 3 , 0 , 10.4 , 0.9870 ,

2013-05-28 20:20:32 , 324.0 , 162.0 , 41.0 , 31 , 1020 , 233 , 1 , 3 , 0 , 10.3 , 0.9870 ,

2013-05-28 20:20:33 , 1110.5 , 1527.4 , 47.0 , 32 , 1020 , 1341 , 84 , 46 , 0 , 75.7 , 1.1750 ,

2013-05-28 20:20:34 , 1110.5 , 1527.4 , 49.0 , 35 , 990 , 1341 , 99 , 52 , 0 , 78.0 , 1.1750 ,

2013-05-28 20:20:35 , 1110.5 , 1527.4 , 50.0 , 36 , 1020 , 1341 , 99 , 49 , 0 , 79.8 , 1.1750 ,

2013-05-28 20:20:36 , 1123.5 , 1527.4 , 51.0 , 36 , 1080 , 1341 , 99 , 52 , 0 , 80.2 , 1.1750 ,

2013-05-28 20:20:37 , 1123.5 , 1527.4 , 51.0 , 37 , 1080 , 1341 , 99 , 50 , 0 , 82.4 , 1.1750 ,

2013-05-28 20:20:38 , 1123.5 , 1527.4 , 52.0 , 37 , 1110 , 1341 , 99 , 51 , 0 , 80.3 , 1.1750 ,

2013-05-28 20:20:39 , 1123.5 , 1527.4 , 53.0 , 37 , 1110 , 1341 , 99 , 52 , 0 , 82.0 , 1.1750 ,

2013-05-28 20:20:40 , 1123.5 , 1527.4 , 53.0 , 37 , 1110 , 1341 , 99 , 52 , 0 , 80.8 , 1.1750 ,

2013-05-28 20:20:41 , 1123.5 , 1527.4 , 53.0 , 37 , 1110 , 1341 , 99 , 52 , 0 , 79.8 , 1.1750 ,

2013-05-28 20:20:42 , 1123.5 , 1527.4 , 54.0 , 37 , 1140 , 1341 , 99 , 50 , 0 , 81.0 , 1.1750 ,

2013-05-28 20:20:43 , 1123.5 , 1527.4 , 54.0 , 38 , 1110 , 1341 , 99 , 49 , 0 , 79.0 , 1.1750 ,

2013-05-28 20:20:44 , 1123.5 , 1527.4 , 55.0 , 38 , 1140 , 1341 , 99 , 50 , 0 , 83.5 , 1.1750 ,

2013-05-28 20:20:45 , 1123.5 , 1527.4 , 56.0 , 38 , 1140 , 1341 , 99 , 52 , 0 , 80.2 , 1.1750 ,

2013-05-28 20:20:46 , 1123.5 , 1527.4 , 56.0 , 38 , 1140 , 1341 , 99 , 52 , 0 , 83.8 , 1.1750 ,

2013-05-28 20:20:47 , 1123.5 , 1527.4 , 56.0 , 39 , 1170 , 1341 , 99 , 52 , 0 , 80.6 , 1.1750 ,

2013-05-28 20:20:48 , 1123.5 , 1527.4 , 57.0 , 39 , 1170 , 1341 , 99 , 52 , 0 , 82.9 , 1.1750 ,

2013-05-28 20:20:49 , 1123.5 , 1527.4 , 57.0 , 39 , 1170 , 1341 , 99 , 50 , 0 , 80.9 , 1.1750 ,

2013-05-28 20:20:50 , 1123.5 , 1527.4 , 57.0 , 39 , 1170 , 1341 , 99 , 49 , 0 , 81.9 , 1.1750 ,

2013-05-28 20:20:51 , 1123.5 , 1527.4 , 58.0 , 39 , 1200 , 1341 , 99 , 50 , 0 , 82.1 , 1.1750 ,

2013-05-28 20:20:52 , 1136.6 , 1527.4 , 58.0 , 39 , 1200 , 1341 , 99 , 50 , 0 , 79.9 , 1.1750 ,

2013-05-28 20:20:53 , 1136.6 , 1527.4 , 59.0 , 40 , 1200 , 1341 , 99 , 50 , 0 , 83.5 , 1.1750 ,

2013-05-28 20:20:54 , 1136.6 , 1527.4 , 59.0 , 40 , 1200 , 1341 , 99 , 50 , 0 , 80.7 , 1.1750 ,

2013-05-28 20:20:55 , 1136.6 , 1527.4 , 60.0 , 40 , 1230 , 1341 , 99 , 50 , 0 , 82.2 , 1.1750 ,

2013-05-28 20:20:56 , 1136.6 , 1527.4 , 60.0 , 40 , 1230 , 1341 , 99 , 50 , 0 , 83.1 , 1.1750 ,

2013-05-28 20:20:57 , 1136.6 , 1527.4 , 60.0 , 41 , 1230 , 1341 , 99 , 50 , 0 , 86.2 , 1.1750 ,

2013-05-28 20:20:58 , 1136.6 , 1527.4 , 61.0 , 41 , 1230 , 1341 , 99 , 50 , 0 , 82.3 , 1.1750 ,

2013-05-28 20:20:59 , 1136.6 , 1527.4 , 61.0 , 41 , 1260 , 1341 , 99 , 50 , 0 , 82.7 , 1.1750 ,

2013-05-28 20:21:00 , 1136.6 , 1527.4 , 62.0 , 41 , 1260 , 1341 , 99 , 50 , 0 , 84.0 , 1.1750 ,

2013-05-28 20:21:01 , 1136.6 , 1527.4 , 62.0 , 41 , 1230 , 1341 , 99 , 50 , 0 , 83.5 , 1.1750 ,

2013-05-28 20:21:02 , 1136.6 , 1527.4 , 63.0 , 41 , 1290 , 1341 , 99 , 50 , 0 , 83.6 , 1.1750 ,

2013-05-28 20:21:03 , 1136.6 , 1527.4 , 63.0 , 41 , 1260 , 1341 , 99 , 51 , 0 , 83.4 , 1.1750 ,

2013-05-28 20:21:04 , 1136.6 , 1527.4 , 63.0 , 42 , 1290 , 1341 , 99 , 53 , 0 , 84.5 , 1.1750 ,

2013-05-28 20:21:05 , 1136.6 , 1527.4 , 63.0 , 42 , 1290 , 1341 , 99 , 52 , 0 , 83.8 , 1.1750 ,

2013-05-28 20:21:06 , 1136.6 , 1527.4 , 63.0 , 42 , 1320 , 1341 , 99 , 53 , 0 , 82.2 , 1.1750 ,

2013-05-28 20:21:07 , 1136.6 , 1527.4 , 64.0 , 42 , 1290 , 1341 , 99 , 53 , 0 , 84.2 , 1.1750 ,

2013-05-28 20:21:08 , 1136.6 , 1527.4 , 64.0 , 42 , 1320 , 1341 , 99 , 52 , 0 , 87.1 , 1.1750 ,

2013-05-28 20:21:09 , 1136.6 , 1527.4 , 61.0 , 43 , 1320 , 1341 , 21 , 10 , 0 , 36.2 , 1.1750 ,

2013-05-28 20:21:10 , 1136.6 , 1527.4 , 60.0 , 42 , 1320 , 233 , 0 , 0 , 0 , 35.6 , 1.1750 ,

2013-05-28 20:21:11 , 1136.6 , 1527.4 , 59.0 , 42 , 1350 , 233 , 0 , 0 , 0 , 32.6 , 1.1750 ,

2013-05-28 20:21:12 , 810.0 , 1527.4 , 57.0 , 41 , 1350 , 233 , 0 , 0 , 0 , 27.1 , 0.9870 ,

2013-05-28 20:21:13 , 810.0 , 1527.4 , 57.0 , 41 , 1290 , 233 , 0 , 0 , 0 , 27.0 , 0.9870 ,

2013-05-28 20:21:14 , 810.0 , 1527.4 , 57.0 , 40 , 1320 , 233 , 0 , 0 , 0 , 27.0 , 0.9870 ,

2013-05-28 20:21:15 , 810.0 , 405.0 , 56.0 , 40 , 1260 , 233 , 0 , 1 , 0 , 17.4 , 0.9870 ,

2013-05-28 20:21:16 , 810.0 , 405.0 , 55.0 , 39 , 1260 , 233 , 0 , 1 , 0 , 17.3 , 0.9870 ,

2013-05-28 20:21:17 , 324.0 , 162.0 , 55.0 , 39 , 1230 , 233 , 1 , 3 , 0 , 17.4 , 0.9870 ,

2013-05-28 20:21:18 , 324.0 , 162.0 , 54.0 , 38 , 1230 , 233 , 1 , 3 , 0 , 17.4 , 0.9870 ,

2013-05-28 20:21:19 , 324.0 , 162.0 , 54.0 , 38 , 1200 , 233 , 2 , 3 , 0 , 15.2 , 0.9870 ,

2013-05-28 20:21:20 , 324.0 , 162.0 , 54.0 , 37 , 1170 , 233 , 1 , 3 , 0 , 15.2 , 0.9870 ,

2013-05-28 20:21:21 , 324.0 , 162.0 , 54.0 , 37 , 1170 , 233 , 1 , 3 , 0 , 15.2 , 0.9870 ,


you can see at 2013-05-28 20:20:32 , how the load goes up out of the blue
and then at 2013-05-28 20:21:11 , i moved the mouse.

i have no idea what is causing this and i would appreciate any help you guys and gals can provide

thanks in advance,

fozz
 
intel rig
(14 items)
 
 
CPUMotherboardGraphicsRAM
AMD FX 8350 ASUS M5A97 Pro ATX AMD Motherboard with UEFI BIOS Palit gtx670 jetstream Kingston Hyperx 8GB (4 x 2GB) 240-Pin DDR3 SDRA... 
Hard DriveHard DriveHard DriveHard Drive
OCZ Vertex 4 Seagate Barracuda Hitachi Deskstar Samsung HD250HJ 
CoolingOSOSMonitor
Noctua NH-D 14 Windows 7 64bit Pro Sabayon Linux 11 HP Compaq LA2405WG 
KeyboardPowerCaseMouse
Microsoft Sidewinder X4 Cooler Master GX650 Cooler Master 690 II Advance Razer Naga 
AudioAudioOtherOther
corsair vengeance 1500 Echo Indigo I/O Logitech G27 Saitek X52 
CPUMotherboardGraphicsRAM
4790k ASUS Maximus Hero VII msi gtx 970 gaming crucial ballistix tactical 
Hard DriveHard DriveHard DriveCooling
vertex 4 840 pro  crucial mx100 noctua nhd 14 
OSMonitorKeyboardPower
win 7 64bit la2405wg sidewinder x4 corsair rm750 
CaseMouse
CM 690II razer naga 
  hide details  
Reply
 
intel rig
(14 items)
 
 
CPUMotherboardGraphicsRAM
AMD FX 8350 ASUS M5A97 Pro ATX AMD Motherboard with UEFI BIOS Palit gtx670 jetstream Kingston Hyperx 8GB (4 x 2GB) 240-Pin DDR3 SDRA... 
Hard DriveHard DriveHard DriveHard Drive
OCZ Vertex 4 Seagate Barracuda Hitachi Deskstar Samsung HD250HJ 
CoolingOSOSMonitor
Noctua NH-D 14 Windows 7 64bit Pro Sabayon Linux 11 HP Compaq LA2405WG 
KeyboardPowerCaseMouse
Microsoft Sidewinder X4 Cooler Master GX650 Cooler Master 690 II Advance Razer Naga 
AudioAudioOtherOther
corsair vengeance 1500 Echo Indigo I/O Logitech G27 Saitek X52 
CPUMotherboardGraphicsRAM
4790k ASUS Maximus Hero VII msi gtx 970 gaming crucial ballistix tactical 
Hard DriveHard DriveHard DriveCooling
vertex 4 840 pro  crucial mx100 noctua nhd 14 
OSMonitorKeyboardPower
win 7 64bit la2405wg sidewinder x4 corsair rm750 
CaseMouse
CM 690II razer naga 
  hide details  
Reply
post #2 of 3
Thread Starter 

AW: odd GPU load while idle

Ok it seems that i had a dirty little malware that was using the gpu cycles. Quick check with malware antibytes and autoruns i could clean the system.

Cheers..


Gesendet von meinem GT-I9300 mit Tapatalk 2
 
intel rig
(14 items)
 
 
CPUMotherboardGraphicsRAM
AMD FX 8350 ASUS M5A97 Pro ATX AMD Motherboard with UEFI BIOS Palit gtx670 jetstream Kingston Hyperx 8GB (4 x 2GB) 240-Pin DDR3 SDRA... 
Hard DriveHard DriveHard DriveHard Drive
OCZ Vertex 4 Seagate Barracuda Hitachi Deskstar Samsung HD250HJ 
CoolingOSOSMonitor
Noctua NH-D 14 Windows 7 64bit Pro Sabayon Linux 11 HP Compaq LA2405WG 
KeyboardPowerCaseMouse
Microsoft Sidewinder X4 Cooler Master GX650 Cooler Master 690 II Advance Razer Naga 
AudioAudioOtherOther
corsair vengeance 1500 Echo Indigo I/O Logitech G27 Saitek X52 
CPUMotherboardGraphicsRAM
4790k ASUS Maximus Hero VII msi gtx 970 gaming crucial ballistix tactical 
Hard DriveHard DriveHard DriveCooling
vertex 4 840 pro  crucial mx100 noctua nhd 14 
OSMonitorKeyboardPower
win 7 64bit la2405wg sidewinder x4 corsair rm750 
CaseMouse
CM 690II razer naga 
  hide details  
Reply
 
intel rig
(14 items)
 
 
CPUMotherboardGraphicsRAM
AMD FX 8350 ASUS M5A97 Pro ATX AMD Motherboard with UEFI BIOS Palit gtx670 jetstream Kingston Hyperx 8GB (4 x 2GB) 240-Pin DDR3 SDRA... 
Hard DriveHard DriveHard DriveHard Drive
OCZ Vertex 4 Seagate Barracuda Hitachi Deskstar Samsung HD250HJ 
CoolingOSOSMonitor
Noctua NH-D 14 Windows 7 64bit Pro Sabayon Linux 11 HP Compaq LA2405WG 
KeyboardPowerCaseMouse
Microsoft Sidewinder X4 Cooler Master GX650 Cooler Master 690 II Advance Razer Naga 
AudioAudioOtherOther
corsair vengeance 1500 Echo Indigo I/O Logitech G27 Saitek X52 
CPUMotherboardGraphicsRAM
4790k ASUS Maximus Hero VII msi gtx 970 gaming crucial ballistix tactical 
Hard DriveHard DriveHard DriveCooling
vertex 4 840 pro  crucial mx100 noctua nhd 14 
OSMonitorKeyboardPower
win 7 64bit la2405wg sidewinder x4 corsair rm750 
CaseMouse
CM 690II razer naga 
  hide details  
Reply
post #3 of 3
Thread Starter 

AW: odd GPU load while idle

Please close this thread

Gesendet von meinem GT-I9300 mit Tapatalk 2
 
intel rig
(14 items)
 
 
CPUMotherboardGraphicsRAM
AMD FX 8350 ASUS M5A97 Pro ATX AMD Motherboard with UEFI BIOS Palit gtx670 jetstream Kingston Hyperx 8GB (4 x 2GB) 240-Pin DDR3 SDRA... 
Hard DriveHard DriveHard DriveHard Drive
OCZ Vertex 4 Seagate Barracuda Hitachi Deskstar Samsung HD250HJ 
CoolingOSOSMonitor
Noctua NH-D 14 Windows 7 64bit Pro Sabayon Linux 11 HP Compaq LA2405WG 
KeyboardPowerCaseMouse
Microsoft Sidewinder X4 Cooler Master GX650 Cooler Master 690 II Advance Razer Naga 
AudioAudioOtherOther
corsair vengeance 1500 Echo Indigo I/O Logitech G27 Saitek X52 
CPUMotherboardGraphicsRAM
4790k ASUS Maximus Hero VII msi gtx 970 gaming crucial ballistix tactical 
Hard DriveHard DriveHard DriveCooling
vertex 4 840 pro  crucial mx100 noctua nhd 14 
OSMonitorKeyboardPower
win 7 64bit la2405wg sidewinder x4 corsair rm750 
CaseMouse
CM 690II razer naga 
  hide details  
Reply
 
intel rig
(14 items)
 
 
CPUMotherboardGraphicsRAM
AMD FX 8350 ASUS M5A97 Pro ATX AMD Motherboard with UEFI BIOS Palit gtx670 jetstream Kingston Hyperx 8GB (4 x 2GB) 240-Pin DDR3 SDRA... 
Hard DriveHard DriveHard DriveHard Drive
OCZ Vertex 4 Seagate Barracuda Hitachi Deskstar Samsung HD250HJ 
CoolingOSOSMonitor
Noctua NH-D 14 Windows 7 64bit Pro Sabayon Linux 11 HP Compaq LA2405WG 
KeyboardPowerCaseMouse
Microsoft Sidewinder X4 Cooler Master GX650 Cooler Master 690 II Advance Razer Naga 
AudioAudioOtherOther
corsair vengeance 1500 Echo Indigo I/O Logitech G27 Saitek X52 
CPUMotherboardGraphicsRAM
4790k ASUS Maximus Hero VII msi gtx 970 gaming crucial ballistix tactical 
Hard DriveHard DriveHard DriveCooling
vertex 4 840 pro  crucial mx100 noctua nhd 14 
OSMonitorKeyboardPower
win 7 64bit la2405wg sidewinder x4 corsair rm750 
CaseMouse
CM 690II razer naga 
  hide details  
Reply
New Posts  All Forums:Forum Nav:
  Return Home
  Back to Forum: NVIDIA
Overclock.net › Forums › Graphics Cards › NVIDIA › odd GPU load while idle